sensor_id;sensor_type;location;lat;lon;timestamp;pressure;altitude;pressure_sealevel;temperature;humidity
13836;BME280;6988;52.614;13.500;2023-04-02T00:06:33;54848.91;;;-143.77;78.39
13836;BME280;6988;52.614;13.500;2023-04-02T00:11:32;54896.13;;;-143.77;78.58
13836;BME280;6988;52.614;13.500;2023-04-02T00:16:27;54889.97;;;-143.77;78.94
13836;BME280;6988;52.614;13.500;2023-04-02T00:21:23;54887.91;;;-143.77;77.97
13836;BME280;6988;52.614;13.500;2023-04-02T00:26:29;54834.56;;;-143.77;77.42
13836;BME280;6988;52.614;13.500;2023-04-02T00:31:23;54875.59;;;-143.77;79.05
13836;BME280;6988;52.614;13.500;2023-04-02T00:36:17;54892.00;;;-143.77;79.06
13836;BME280;6988;52.614;13.500;2023-04-02T00:41:18;54846.88;;;-143.77;78.48
13836;BME280;6988;52.614;13.500;2023-04-02T00:46:16;54867.38;;;-143.77;78.56
13836;BME280;6988;52.614;13.500;2023-04-02T00:51:18;54892.00;;;-143.77;77.77
13836;BME280;6988;52.614;13.500;2023-04-02T00:56:18;54879.69;;;-143.77;78.49
13836;BME280;6988;52.614;13.500;2023-04-02T01:01:18;54877.66;;;-143.77;77.66
13836;BME280;6988;52.614;13.500;2023-04-02T01:06:15;54853.03;;;-143.77;77.47
13836;BME280;6988;52.614;13.500;2023-04-02T01:11:24;54867.38;;;-143.77;76.83
13836;BME280;6988;52.614;13.500;2023-04-02T01:16:34;54883.81;;;-143.77;76.98
13836;BME280;6988;52.614;13.500;2023-04-02T01:21:49;54855.06;;;-143.77;77.79
13836;BME280;6988;52.614;13.500;2023-04-02T01:26:53;54885.84;;;-143.77;78.43
13836;BME280;6988;52.614;13.500;2023-04-02T01:31:51;54877.66;;;-143.77;76.99
13836;BME280;6988;52.614;13.500;2023-04-02T01:36:59;54898.16;;;-143.77;77.20
13836;BME280;6988;52.614;13.500;2023-04-02T01:42:03;54902.28;;;-143.77;76.49
13836;BME280;6988;52.614;13.500;2023-04-02T01:47:02;54885.84;;;-143.77;75.86
13836;BME280;6988;52.614;13.500;2023-04-02T01:51:56;54869.44;;;-143.77;75.85
13836;BME280;6988;52.614;13.500;2023-04-02T01:56:52;54867.38;;;-143.77;75.16
13836;BME280;6988;52.614;13.500;2023-04-02T02:01:50;54910.47;;;-143.77;75.32
13836;BME280;6988;52.614;13.500;2023-04-02T02:06:46;54904.31;;;-143.77;75.53
13836;BME280;6988;52.614;13.500;2023-04-02T02:11:39;54889.97;;;-143.77;75.45
13836;BME280;6988;52.614;13.500;2023-04-02T02:16:33;54894.06;;;-143.77;75.73
13836;BME280;6988;52.614;13.500;2023-04-02T02:21:39;54869.44;;;-143.77;75.33
13836;BME280;6988;52.614;13.500;2023-04-02T02:26:35;54889.97;;;-143.77;75.13
13836;BME280;6988;52.614;13.500;2023-04-02T02:31:31;54894.06;;;-143.77;75.97
13836;BME280;6988;52.614;13.500;2023-04-02T02:36:32;54881.75;;;-143.77;75.32
13836;BME280;6988;52.614;13.500;2023-04-02T02:41:36;54898.16;;;-143.77;75.19
13836;BME280;6988;52.614;13.500;2023-04-02T02:46:33;54865.34;;;-143.77;75.24
13836;BME280;6988;52.614;13.500;2023-04-02T02:51:41;54900.22;;;-143.77;74.62
13836;BME280;6988;52.614;13.500;2023-04-02T02:56:46;54896.13;;;-143.77;74.67
13836;BME280;6988;52.614;13.500;2023-04-02T03:01:43;54883.81;;;-143.77;75.54
13836;BME280;6988;52.614;13.500;2023-04-02T03:06:38;54939.22;;;-143.77;75.75
13836;BME280;6988;52.614;13.500;2023-04-02T03:11:40;54881.75;;;-143.77;76.49
13836;BME280;6988;52.614;13.500;2023-04-02T03:16:44;54863.28;;;-143.77;74.82
13836;BME280;6988;52.614;13.500;2023-04-02T03:21:45;54877.66;;;-143.77;75.14
13836;BME280;6988;52.614;13.500;2023-04-02T03:26:52;54922.78;;;-143.77;75.33
13836;BME280;6988;52.614;13.500;2023-04-02T03:31:53;54861.22;;;-143.77;75.73
13836;BME280;6988;52.614;13.500;2023-04-02T03:36:55;54877.66;;;-143.77;76.02
13836;BME280;6988;52.614;13.500;2023-04-02T03:41:56;54892.00;;;-143.77;75.15
13836;BME280;6988;52.614;13.500;2023-04-02T03:46:54;54877.66;;;-143.77;74.28
13836;BME280;6988;52.614;13.500;2023-04-02T03:51:58;54871.50;;;-143.77;74.34
13836;BME280;6988;52.614;13.500;2023-04-02T03:56:53;54855.06;;;-143.77;75.71
13836;BME280;6988;52.614;13.500;2023-04-02T04:01:58;54877.66;;;-143.77;75.47
13836;BME280;6988;52.614;13.500;2023-04-02T04:06:55;54894.06;;;-143.77;75.26
13836;BME280;6988;52.614;13.500;2023-04-02T04:11:51;54871.50;;;-143.77;74.78
13836;BME280;6988;52.614;13.500;2023-04-02T04:16:50;54840.72;;;-143.77;74.70
13836;BME280;6988;52.614;13.500;2023-04-02T04:21:49;54865.34;;;-143.77;75.55
13836;BME280;6988;52.614;13.500;2023-04-02T04:26:55;54865.34;;;-143.77;74.29
13836;BME280;6988;52.614;13.500;2023-04-02T04:32:09;54857.13;;;-143.77;74.38
13836;BME280;6988;52.614;13.500;2023-04-02T04:37:04;54871.50;;;-143.77;75.06
13836;BME280;6988;52.614;13.500;2023-04-02T04:42:06;54885.84;;;-143.77;75.46
13836;BME280;6988;52.614;13.500;2023-04-02T04:47:06;54889.97;;;-143.77;75.31
13836;BME280;6988;52.614;13.500;2023-04-02T04:52:06;54898.16;;;-143.77;75.57
13836;BME280;6988;52.614;13.500;2023-04-02T04:57:03;54857.13;;;-143.77;75.86
13836;BME280;6988;52.614;13.500;2023-04-02T05:02:05;54846.88;;;-143.77;75.32
13836;BME280;6988;52.614;13.500;2023-04-02T05:07:07;54892.00;;;-143.77;76.10
13836;BME280;6988;52.614;13.500;2023-04-02T05:12:12;54877.66;;;-143.77;75.40
13836;BME280;6988;52.614;13.500;2023-04-02T05:17:18;54894.06;;;-143.77;75.57
13836;BME280;6988;52.614;13.500;2023-04-02T05:22:24;54896.13;;;-143.77;74.70
13836;BME280;6988;52.614;13.500;2023-04-02T05:27:27;54877.66;;;-143.77;75.10
13836;BME280;6988;52.614;13.500;2023-04-02T05:32:29;54902.28;;;-143.77;75.29
13836;BME280;6988;52.614;13.500;2023-04-02T05:37:27;54894.06;;;-143.77;75.75
13836;BME280;6988;52.614;13.500;2023-04-02T05:42:24;54877.66;;;-143.77;75.07
13836;BME280;6988;52.614;13.500;2023-04-02T05:47:28;54879.69;;;-143.77;74.18
13836;BME280;6988;52.614;13.500;2023-04-02T05:52:28;54848.91;;;-143.77;74.16
13836;BME280;6988;52.614;13.500;2023-04-02T05:57:30;54881.75;;;-143.77;74.36
13836;BME280;6988;52.614;13.500;2023-04-02T06:02:30;54844.81;;;-143.77;74.50
13836;BME280;6988;52.614;13.500;2023-04-02T06:07:30;54838.66;;;-143.77;74.83
13836;BME280;6988;52.614;13.500;2023-04-02T06:12:30;54828.41;;;-143.77;73.89
13836;BME280;6988;52.614;13.500;2023-04-02T06:17:43;54836.59;;;-143.77;72.54
13836;BME280;6988;52.614;13.500;2023-04-02T06:22:40;54805.81;;;-143.77;73.40
13836;BME280;6988;52.614;13.500;2023-04-02T06:27:35;54799.66;;;-143.77;70.95
13836;BME280;6988;52.614;13.500;2023-04-02T06:32:33;54758.63;;;-143.77;70.35
13836;BME280;6988;52.614;13.500;2023-04-02T06:37:32;54781.19;;;-143.77;69.68
13836;BME280;6988;52.614;13.500;2023-04-02T06:42:44;54709.38;;;-143.77;68.95
13836;BME280;6988;52.614;13.500;2023-04-02T06:47:45;54766.84;;;-143.77;67.93
13836;BME280;6988;52.614;13.500;2023-04-02T06:52:51;54770.94;;;-143.77;67.21
13836;BME280;6988;52.614;13.500;2023-04-02T06:57:44;54787.34;;;-143.77;67.29
13836;BME280;6988;52.614;13.500;2023-04-02T07:02:39;54729.91;;;-143.77;67.05
13836;BME280;6988;52.614;13.500;2023-04-02T07:07:35;54766.84;;;-143.77;67.91
13836;BME280;6988;52.614;13.500;2023-04-02T07:12:31;54756.56;;;-143.77;65.65
13836;BME280;6988;52.614;13.500;2023-04-02T07:17:22;54717.59;;;-143.77;67.25
13836;BME280;6988;52.614;13.500;2023-04-02T07:22:15;54748.38;;;-143.77;65.72
13836;BME280;6988;52.614;13.500;2023-04-02T07:27:11;54791.47;;;-143.77;64.63
13836;BME280;6988;52.614;13.500;2023-04-02T07:32:04;54775.03;;;-143.77;63.56
13836;BME280;6988;52.614;13.500;2023-04-02T07:36:56;54787.34;;;-143.77;65.33
13836;BME280;6988;52.614;13.500;2023-04-02T07:41:53;54797.63;;;-143.77;64.29
13836;BME280;6988;52.614;13.500;2023-04-02T07:46:47;54746.31;;;-143.77;65.43
13836;BME280;6988;52.614;13.500;2023-04-02T07:51:40;54762.72;;;-143.77;64.24
13836;BME280;6988;52.614;13.500;2023-04-02T07:56:32;54783.25;;;-143.77;63.74
13836;BME280;6988;52.614;13.500;2023-04-02T08:01:26;54781.19;;;-143.77;64.34
13836;BME280;6988;52.614;13.500;2023-04-02T08:06:21;54764.78;;;-143.77;65.05
13836;BME280;6988;52.614;13.500;2023-04-02T08:11:13;54795.56;;;-143.77;63.27
13836;BME280;6988;52.614;13.500;2023-04-02T08:16:07;54760.69;;;-143.77;63.46
13836;BME280;6988;52.614;13.500;2023-04-02T08:20:59;54762.72;;;-143.77;63.65
13836;BME280;6988;52.614;13.500;2023-04-02T08:32:24;54758.63;;;-143.77;64.14
13836;BME280;6988;52.614;13.500;2023-04-02T08:37:18;54762.72;;;-143.77;63.32
13836;BME280;6988;52.614;13.500;2023-04-02T08:42:22;54746.31;;;-143.77;62.81
13836;BME280;6988;52.614;13.500;2023-04-02T08:47:21;54731.94;;;-143.77;63.82
13836;BME280;6988;52.614;13.500;2023-04-02T08:52:23;54754.53;;;-143.77;62.67
13836;BME280;6988;52.614;13.500;2023-04-02T08:57:30;54721.69;;;-143.77;62.75
13836;BME280;6988;52.614;13.500;2023-04-02T09:02:36;54742.22;;;-143.77;60.93
13836;BME280;6988;52.614;13.500;2023-04-02T09:07:30;54715.53;;;-143.77;60.80
13836;BME280;6988;52.614;13.500;2023-04-02T09:12:26;54725.78;;;-143.77;60.08
13836;BME280;6988;52.614;13.500;2023-04-02T09:17:22;54756.56;;;-143.77;61.53
13836;BME280;6988;52.614;13.500;2023-04-02T09:22:20;54721.69;;;-143.77;60.50
13836;BME280;6988;52.614;13.500;2023-04-02T09:27:18;54676.53;;;-143.77;60.07
13836;BME280;6988;52.614;13.500;2023-04-02T09:32:39;54713.47;;;-143.77;58.46
13836;BME280;6988;52.614;13.500;2023-04-02T09:37:36;54719.63;;;-143.77;57.37
13836;BME280;6988;52.614;13.500;2023-04-02T09:42:34;54664.22;;;-143.77;58.78
13836;BME280;6988;52.614;13.500;2023-04-02T09:47:30;54705.28;;;-143.77;59.24
13836;BME280;6988;52.614;13.500;2023-04-02T09:52:27;54524.69;;;-143.77;58.80
13836;BME280;6988;52.614;13.500;2023-04-02T09:57:22;54510.34;;;-143.77;55.55
13836;BME280;6988;52.614;13.500;2023-04-02T10:02:28;54489.81;;;-143.77;54.26
13836;BME280;6988;52.614;13.500;2023-04-02T10:07:33;54602.66;;;-143.77;50.83
13836;BME280;6988;52.614;13.500;2023-04-02T10:12:29;54639.59;;;-143.77;54.06
13836;BME280;6988;52.614;13.500;2023-04-02T10:23:59;54649.88;;;-143.77;55.00
13836;BME280;6988;52.614;13.500;2023-04-02T10:34:31;54633.44;;;-143.77;55.23
13836;BME280;6988;52.614;13.500;2023-04-02T10:39:33;54600.63;;;-143.77;56.53
13836;BME280;6988;52.614;13.500;2023-04-02T10:44:41;54643.72;;;-143.77;56.99
13836;BME280;6988;52.614;13.500;2023-04-02T10:49:50;54619.09;;;-143.77;55.06
13836;BME280;6988;52.614;13.500;2023-04-02T10:54:48;54614.97;;;-143.77;54.71
13836;BME280;6988;52.614;13.500;2023-04-02T10:59:47;54656.03;;;-143.77;55.29
13836;BME280;6988;52.614;13.500;2023-04-02T11:04:45;54631.41;;;-143.77;52.88
13836;BME280;6988;52.614;13.500;2023-04-02T11:09:47;54614.97;;;-143.77;56.76
13836;BME280;6988;52.614;13.500;2023-04-02T11:14:41;54651.91;;;-143.77;52.75
13836;BME280;6988;52.614;13.500;2023-04-02T11:19:34;54549.31;;;-143.77;53.93
13836;BME280;6988;52.614;13.500;2023-04-02T11:24:36;54454.94;;;-143.77;50.55
13836;BME280;6988;52.614;13.500;2023-04-02T11:29:32;54428.25;;;-143.77;54.90
13836;BME280;6988;52.614;13.500;2023-04-02T11:40:45;54537.00;;;-143.77;52.43
13836;BME280;6988;52.614;13.500;2023-04-02T11:45:56;54571.88;;;-143.77;50.82
13836;BME280;6988;52.614;13.500;2023-04-02T11:50:49;54547.25;;;-143.77;48.89
13836;BME280;6988;52.614;13.500;2023-04-02T11:55:42;54547.25;;;-143.77;49.08
13836;BME280;6988;52.614;13.500;2023-04-02T12:06:56;54586.25;;;-143.77;48.55
13836;BME280;6988;52.614;13.500;2023-04-02T12:12:23;54582.16;;;-143.77;48.83
13836;BME280;6988;52.614;13.500;2023-04-02T12:17:29;54545.22;;;-143.77;50.54
13836;BME280;6988;52.614;13.500;2023-04-02T12:22:26;54549.31;;;-143.77;50.79
13836;BME280;6988;52.614;13.500;2023-04-02T12:27:23;54553.41;;;-143.77;49.91
13836;BME280;6988;52.614;13.500;2023-04-02T12:32:26;54446.72;;;-143.77;49.39
13836;BME280;6988;52.614;13.500;2023-04-02T12:37:24;54483.66;;;-143.77;48.71
13836;BME280;6988;52.614;13.500;2023-04-02T12:42:26;54467.25;;;-143.77;48.60
13836;BME280;6988;52.614;13.500;2023-04-02T12:47:18;54524.69;;;-143.77;45.11
13836;BME280;6988;52.614;13.500;2023-04-02T12:52:14;54528.78;;;-143.77;47.61
13836;BME280;6988;52.614;13.500;2023-04-02T12:57:34;54537.00;;;-143.77;46.49
13836;BME280;6988;52.614;13.500;2023-04-02T13:02:28;54485.72;;;-143.77;45.91
13836;BME280;6988;52.614;13.500;2023-04-02T13:07:24;54522.63;;;-143.77;47.94
13836;BME280;6988;52.614;13.500;2023-04-02T13:12:30;54493.91;;;-143.77;45.82
13836;BME280;6988;52.614;13.500;2023-04-02T13:17:44;54532.91;;;-143.77;46.66
13836;BME280;6988;52.614;13.500;2023-04-02T13:22:36;54491.88;;;-143.77;47.42
13836;BME280;6988;52.614;13.500;2023-04-02T13:27:30;54520.59;;;-143.77;47.93
13836;BME280;6988;52.614;13.500;2023-04-02T13:32:22;54502.13;;;-143.77;47.89
13836;BME280;6988;52.614;13.500;2023-04-02T13:37:13;54557.53;;;-143.77;45.55
13836;BME280;6988;52.614;13.500;2023-04-02T13:42:06;54524.69;;;-143.77;49.18
13836;BME280;6988;52.614;13.500;2023-04-02T13:47:00;54528.78;;;-143.77;48.18
13836;BME280;6988;52.614;13.500;2023-04-02T13:51:54;54512.38;;;-143.77;46.00
13836;BME280;6988;52.614;13.500;2023-04-02T13:56:47;54537.00;;;-143.77;46.78
13836;BME280;6988;52.614;13.500;2023-04-02T14:01:42;54524.69;;;-143.77;45.57
13836;BME280;6988;52.614;13.500;2023-04-02T14:06:59;54537.00;;;-143.77;46.02
13836;BME280;6988;52.614;13.500;2023-04-02T14:12:04;54565.72;;;-143.77;45.61
13836;BME280;6988;52.614;13.500;2023-04-02T14:17:10;54565.72;;;-143.77;46.56
13836;BME280;6988;52.614;13.500;2023-04-02T14:22:23;54495.97;;;-143.77;45.98
13836;BME280;6988;52.614;13.500;2023-04-02T14:33:57;54534.94;;;-143.77;45.59
13836;BME280;6988;52.614;13.500;2023-04-02T14:39:02;54502.13;;;-143.77;45.79
13836;BME280;6988;52.614;13.500;2023-04-02T14:43:59;54508.28;;;-143.77;46.34
13836;BME280;6988;52.614;13.500;2023-04-02T14:48:57;54477.50;;;-143.77;46.14
13836;BME280;6988;52.614;13.500;2023-04-02T14:54:03;54553.41;;;-143.77;45.68
13836;BME280;6988;52.614;13.500;2023-04-02T15:05:39;54516.50;;;-143.77;46.87
13836;BME280;6988;52.614;13.500;2023-04-02T15:10:42;54553.41;;;-143.77;47.38
13836;BME280;6988;52.614;13.500;2023-04-02T15:15:41;54553.41;;;-143.77;46.78
13836;BME280;6988;52.614;13.500;2023-04-02T15:20:46;54500.06;;;-143.77;48.34
13836;BME280;6988;52.614;13.500;2023-04-02T15:25:49;54561.63;;;-143.77;47.18
13836;BME280;6988;52.614;13.500;2023-04-02T15:37:07;54580.09;;;-143.77;46.47
13836;BME280;6988;52.614;13.500;2023-04-02T15:42:16;54571.88;;;-143.77;46.10
13836;BME280;6988;52.614;13.500;2023-04-02T15:47:18;54598.56;;;-143.77;46.07
13836;BME280;6988;52.614;13.500;2023-04-02T15:52:24;54653.97;;;-143.77;47.37
13836;BME280;6988;52.614;13.500;2023-04-02T15:57:49;54643.72;;;-143.77;47.88
13836;BME280;6988;52.614;13.500;2023-04-02T16:03:19;54635.50;;;-143.77;49.55
13836;BME280;6988;52.614;13.500;2023-04-02T16:14:47;54680.66;;;-143.77;48.19
13836;BME280;6988;52.614;13.500;2023-04-02T16:19:43;54670.38;;;-143.77;48.55
13836;BME280;6988;52.614;13.500;2023-04-02T16:24:37;54649.88;;;-143.77;50.21
13836;BME280;6988;52.614;13.500;2023-04-02T16:30:12;54641.66;;;-143.77;49.80
13836;BME280;6988;52.614;13.500;2023-04-02T16:35:22;54680.66;;;-143.77;51.67
13836;BME280;6988;52.614;13.500;2023-04-02T16:40:31;54690.91;;;-143.77;52.42
13836;BME280;6988;52.614;13.500;2023-04-02T16:52:17;54709.38;;;-143.77;52.80
13836;BME280;6988;52.614;13.500;2023-04-02T16:57:31;54719.63;;;-143.77;53.62
13836;BME280;6988;52.614;13.500;2023-04-02T17:02:36;54729.91;;;-143.77;53.15
13836;BME280;6988;52.614;13.500;2023-04-02T17:07:39;54719.63;;;-143.77;54.29
13836;BME280;6988;52.614;13.500;2023-04-02T17:12:43;54713.47;;;-143.77;53.78
13836;BME280;6988;52.614;13.500;2023-04-02T17:24:20;54713.47;;;-143.77;57.21
13836;BME280;6988;52.614;13.500;2023-04-02T17:29:19;54742.22;;;-143.77;57.20
13836;BME280;6988;52.614;13.500;2023-04-02T17:34:14;54754.53;;;-143.77;57.84
13836;BME280;6988;52.614;13.500;2023-04-02T17:39:17;54766.84;;;-143.77;58.49
13836;BME280;6988;52.614;13.500;2023-04-02T17:44:46;54758.63;;;-143.77;59.47
13836;BME280;6988;52.614;13.500;2023-04-02T17:50:08;54779.16;;;-143.77;59.31
13836;BME280;6988;52.614;13.500;2023-04-02T17:55:17;54775.03;;;-143.77;59.30
13836;BME280;6988;52.614;13.500;2023-04-02T18:07:08;54770.94;;;-143.77;60.82
13836;BME280;6988;52.614;13.500;2023-04-02T18:12:22;54820.19;;;-143.77;61.60
13836;BME280;6988;52.614;13.500;2023-04-02T18:17:27;54787.34;;;-143.77;61.70
13836;BME280;6988;52.614;13.500;2023-04-02T18:22:34;54811.97;;;-143.77;62.00
13836;BME280;6988;52.614;13.500;2023-04-02T18:27:45;54793.50;;;-143.77;62.14
13836;BME280;6988;52.614;13.500;2023-04-02T18:33:13;54820.19;;;-143.77;62.96
13836;BME280;6988;52.614;13.500;2023-04-02T18:38:22;54820.19;;;-143.77;62.78
13836;BME280;6988;52.614;13.500;2023-04-02T18:43:35;54811.97;;;-143.77;64.27
13836;BME280;6988;52.614;13.500;2023-04-02T18:48:38;54834.56;;;-143.77;63.97
13836;BME280;6988;52.614;13.500;2023-04-02T18:53:33;54850.97;;;-143.77;64.20
13836;BME280;6988;52.614;13.500;2023-04-02T18:58:34;54834.56;;;-143.77;64.78
13836;BME280;6988;52.614;13.500;2023-04-02T19:03:37;54844.81;;;-143.77;64.78
13836;BME280;6988;52.614;13.500;2023-04-02T19:22:14;54848.91;;;-143.77;65.51
13836;BME280;6988;52.614;13.500;2023-04-02T19:27:22;54861.22;;;-143.77;65.52
13836;BME280;6988;52.614;13.500;2023-04-02T19:32:31;54850.97;;;-143.77;65.52
13836;BME280;6988;52.614;13.500;2023-04-02T19:37:33;54853.03;;;-143.77;65.70
13836;BME280;6988;52.614;13.500;2023-04-02T19:42:42;54863.28;;;-143.77;65.82
13836;BME280;6988;52.614;13.500;2023-04-02T20:06:49;54826.34;;;-143.77;66.56
13836;BME280;6988;52.614;13.500;2023-04-02T20:11:41;54902.28;;;-143.77;66.45
13836;BME280;6988;52.614;13.500;2023-04-02T20:16:33;54894.06;;;-143.77;66.12
13836;BME280;6988;52.614;13.500;2023-04-02T20:21:26;54900.22;;;-143.77;65.99
13836;BME280;6988;52.614;13.500;2023-04-02T20:32:51;54892.00;;;-143.77;66.31
13836;BME280;6988;52.614;13.500;2023-04-02T20:37:45;54885.84;;;-143.77;66.01
13836;BME280;6988;52.614;13.500;2023-04-02T20:42:37;54906.38;;;-143.77;66.64
13836;BME280;6988;52.614;13.500;2023-04-02T20:47:29;54887.91;;;-143.77;66.34
13836;BME280;6988;52.614;13.500;2023-04-02T20:52:22;54881.75;;;-143.77;66.35
13836;BME280;6988;52.614;13.500;2023-04-02T20:57:14;54863.28;;;-143.77;66.43
13836;BME280;6988;52.614;13.500;2023-04-02T21:02:07;54855.06;;;-143.77;66.38
13836;BME280;6988;52.614;13.500;2023-04-02T21:13:34;54906.38;;;-143.77;66.67
13836;BME280;6988;52.614;13.500;2023-04-02T21:18:29;54894.06;;;-143.77;67.18
13836;BME280;6988;52.614;13.500;2023-04-02T21:23:21;54887.91;;;-143.77;67.21
13836;BME280;6988;52.614;13.500;2023-04-02T21:28:13;54906.38;;;-143.77;66.81
13836;BME280;6988;52.614;13.500;2023-04-02T21:33:09;54914.59;;;-143.77;66.88
13836;BME280;6988;52.614;13.500;2023-04-02T21:38:01;54885.84;;;-143.77;66.86
13836;BME280;6988;52.614;13.500;2023-04-02T21:42:53;54906.38;;;-143.77;67.53
13836;BME280;6988;52.614;13.500;2023-04-02T22:04:04;54924.84;;;-143.77;69.55
13836;BME280;6988;52.614;13.500;2023-04-02T22:08:59;54931.00;;;-143.77;69.14
13836;BME280;6988;52.614;13.500;2023-04-02T22:13:52;54933.06;;;-143.77;69.36
13836;BME280;6988;52.614;13.500;2023-04-02T22:18:45;54933.06;;;-143.77;69.96
13836;BME280;6988;52.614;13.500;2023-04-02T22:23:40;54922.78;;;-143.77;69.81
13836;BME280;6988;52.614;13.500;2023-04-02T22:28:33;54939.22;;;-143.77;70.27
13836;BME280;6988;52.614;13.500;2023-04-02T22:33:25;54914.59;;;-143.77;69.92
13836;BME280;6988;52.614;13.500;2023-04-02T22:38:18;54926.91;;;-143.77;70.47
13836;BME280;6988;52.614;13.500;2023-04-02T22:43:11;54931.00;;;-143.77;69.88
13836;BME280;6988;52.614;13.500;2023-04-02T22:48:03;54916.63;;;-143.77;70.48
13836;BME280;6988;52.614;13.500;2023-04-02T23:06:02;54931.00;;;-143.77;70.43
13836;BME280;6988;52.614;13.500;2023-04-02T23:11:02;54935.09;;;-143.77;70.14
13836;BME280;6988;52.614;13.500;2023-04-02T23:15:54;54922.78;;;-143.77;70.54
13836;BME280;6988;52.614;13.500;2023-04-02T23:20:45;54910.47;;;-143.77;71.29
13836;BME280;6988;52.614;13.500;2023-04-02T23:32:10;54961.78;;;-143.77;70.35
13836;BME280;6988;52.614;13.500;2023-04-02T23:37:01;54945.38;;;-143.77;70.30
13836;BME280;6988;52.614;13.500;2023-04-02T23:41:53;54908.44;;;-143.77;71.07
13836;BME280;6988;52.614;13.500;2023-04-02T23:46:45;54922.78;;;-143.77;70.55
13836;BME280;6988;52.614;13.500;2023-04-02T23:51:38;54949.47;;;-143.77;70.52
13836;BME280;6988;52.614;13.500;2023-04-02T23:56:30;54943.31;;;-143.77;69.98
